Time;durP1;ratioP1;P1;durP2;ratioP2;P2;SDS_P1;SDS_P2;PMS_P1;PMS_P2;Temp;Humidity;BMP_temperature;BMP_pressure;BME280_temperature;BME280_humidity;BME280_pressure;Samples;Min_cycle;Max_cycle;Signal;HPM_P1;HPM_P2
2022/07/15 00:02:13;;;;;;;17.75;16.58;;;22.20;54.50;;;;;;5035869;28;20382;-82
2022/07/15 00:04:39;;;;;;;18.50;17.00;;;22.10;54.60;;;;;;5036631;28;20022;-82
2022/07/15 00:07:06;;;;;;;17.85;16.45;;;22.00;54.80;;;;;;5026209;28;20046;-82
2022/07/15 00:12:16;;;;;;;17.05;15.95;;;22.00;54.70;;;;;;5046438;28;20140;-82
2022/07/15 00:14:44;;;;;;;17.95;16.65;;;21.90;55.00;;;;;;5032848;28;20484;-82
2022/07/15 00:17:10;;;;;;;17.67;16.23;;;22.00;55.00;;;;;;5004544;28;20511;-82
2022/07/15 00:19:36;;;;;;;16.67;15.52;;;22.10;54.60;;;;;;5029376;28;20040;-82
2022/07/15 00:22:02;;;;;;;18.00;16.27;;;21.90;55.00;;;;;;5001581;28;20044;-82
2022/07/15 00:24:28;;;;;;;17.02;15.82;;;21.70;55.50;;;;;;4996895;28;20076;-82
2022/07/15 00:26:55;;;;;;;16.88;15.60;;;21.80;55.60;;;;;;5019491;28;20196;-82
2022/07/15 00:29:21;;;;;;;16.48;15.23;;;21.80;55.30;;;;;;5032343;28;20494;-82
2022/07/15 00:31:47;;;;;;;17.45;16.02;;;21.70;55.50;;;;;;5031478;28;20029;-82
2022/07/15 00:34:13;;;;;;;16.83;15.38;;;21.80;55.40;;;;;;5000312;28;20542;-82
2022/07/15 00:36:39;;;;;;;16.65;15.55;;;21.60;55.70;;;;;;5029069;28;20038;-82
2022/07/15 00:39:06;;;;;;;17.73;16.17;;;21.70;55.60;;;;;;5017457;28;20036;-82
2022/07/15 00:41:39;;;;;;;16.15;15.15;;;21.80;55.40;;;;;;5035568;28;20468;-82
2022/07/15 00:44:05;;;;;;;16.65;15.45;;;21.80;55.30;;;;;;5015999;28;20044;-82
2022/07/15 00:46:31;;;;;;;18.13;16.42;;;21.90;55.00;;;;;;5031318;28;20041;-82
2022/07/15 00:48:58;;;;;;;17.30;15.85;;;21.80;55.20;;;;;;5033157;28;20044;-81
2022/07/15 00:51:24;;;;;;;17.48;16.38;;;21.80;55.10;;;;;;4997137;28;20045;-82
2022/07/15 00:53:50;;;;;;;17.42;16.02;;;21.80;55.20;;;;;;5018649;28;20072;-82
2022/07/15 00:56:16;;;;;;;17.50;15.90;;;21.70;55.40;;;;;;5031418;28;20407;-81
2022/07/15 00:58:42;;;;;;;16.55;15.45;;;21.60;55.70;;;;;;5035571;28;20066;-82
2022/07/15 01:01:08;;;;;;;16.75;15.55;;;21.60;55.60;;;;;;5014606;28;20033;-82
2022/07/15 01:03:34;;;;;;;16.77;15.35;;;21.60;55.60;;;;;;5031283;28;20022;-82
2022/07/15 01:06:01;;;;;;;16.83;15.43;;;21.60;55.80;;;;;;4997604;28;20042;-82
2022/07/15 01:08:27;;;;;;;16.15;14.88;;;21.50;55.80;;;;;;5014193;28;20049;-82
2022/07/15 01:10:53;;;;;;;16.05;14.82;;;21.50;55.90;;;;;;5034225;28;20029;-82
2022/07/15 01:13:20;;;;;;;15.65;14.48;;;21.40;56.20;;;;;;5014754;28;20032;-82
2022/07/15 01:15:46;;;;;;;16.45;14.80;;;21.40;56.10;;;;;;5011786;28;20046;-81
2022/07/15 01:18:12;;;;;;;16.13;14.93;;;21.40;56.10;;;;;;5032077;28;20030;-82
2022/07/15 01:20:40;;;;;;;15.20;14.20;;;21.30;56.40;;;;;;5034176;28;20025;-82
2022/07/15 01:23:06;;;;;;;15.40;14.15;;;21.20;56.60;;;;;;5031103;28;20431;-81
2022/07/15 01:25:32;;;;;;;14.93;13.82;;;21.20;56.80;;;;;;5017373;28;20069;-82
2022/07/15 01:27:59;;;;;;;14.38;13.18;;;21.20;56.50;;;;;;5014132;28;20029;-82
2022/07/15 01:30:25;;;;;;;15.70;14.32;;;21.20;56.70;;;;;;5029421;28;20045;-82
2022/07/15 01:32:51;;;;;;;15.38;14.07;;;21.20;56.60;;;;;;5034512;28;20051;-82
2022/07/15 01:35:17;;;;;;;15.05;13.73;;;21.00;56.90;;;;;;5037924;28;20041;-82
2022/07/15 01:37:44;;;;;;;14.75;13.60;;;20.80;57.40;;;;;;5022884;28;20423;-82
2022/07/15 01:40:10;;;;;;;14.13;12.90;;;20.80;57.40;;;;;;5014060;28;20025;-81
2022/07/15 01:42:37;;;;;;;14.07;13.07;;;20.80;57.40;;;;;;5029265;28;20041;-82
2022/07/15 01:45:05;;;;;;;13.65;12.68;;;20.70;57.70;;;;;;5031984;28;20041;-81
2022/07/15 01:47:32;;;;;;;14.07;12.82;;;20.70;57.90;;;;;;5033539;28;20392;-82
2022/07/15 01:49:58;;;;;;;14.05;12.95;;;20.60;57.90;;;;;;5014187;28;20044;-82
2022/07/15 01:52:25;;;;;;;14.27;13.15;;;20.60;57.90;;;;;;5016725;28;20068;-82
2022/07/15 01:54:51;;;;;;;14.60;13.30;;;20.70;57.40;;;;;;5028526;28;20041;-82
2022/07/15 01:57:18;;;;;;;14.02;12.82;;;20.70;57.50;;;;;;4996227;28;20042;-82
2022/07/15 01:59:44;;;;;;;14.18;12.98;;;20.60;57.60;;;;;;5017966;28;20025;-82
2022/07/15 02:02:10;;;;;;;13.77;12.60;;;20.50;57.70;;;;;;5013574;28;20037;-82
2022/07/15 02:04:36;;;;;;;13.45;12.40;;;20.60;57.60;;;;;;5016541;28;20111;-82
2022/07/15 02:07:03;;;;;;;13.85;12.85;;;20.50;57.70;;;;;;5030258;28;20029;-81
2022/07/15 02:09:29;;;;;;;13.25;12.38;;;20.40;57.90;;;;;;5028675;28;20046;-81
2022/07/15 02:11:55;;;;;;;14.48;12.95;;;20.40;58.00;;;;;;5033989;28;20037;-81
2022/07/15 02:14:21;;;;;;;13.88;12.80;;;20.40;58.00;;;;;;5014107;28;20056;-82
2022/07/15 02:16:47;;;;;;;13.50;12.60;;;20.40;57.80;;;;;;5029999;28;20385;-82
2022/07/15 02:19:13;;;;;;;13.98;12.75;;;20.50;57.50;;;;;;5013917;28;20029;-82
2022/07/15 02:21:39;;;;;;;13.57;12.68;;;20.60;57.00;;;;;;5037216;28;20029;-82
2022/07/15 02:24:06;;;;;;;14.40;12.90;;;20.70;56.70;;;;;;5038911;28;20033;-81
2022/07/15 02:26:32;;;;;;;13.93;12.95;;;20.70;56.70;;;;;;5007155;28;20041;-82
2022/07/15 02:28:58;;;;;;;13.60;12.50;;;20.80;56.30;;;;;;5037008;28;20029;-81
2022/07/15 02:31:24;;;;;;;14.50;13.13;;;20.70;56.40;;;;;;5005903;28;20048;-82
2022/07/15 02:33:50;;;;;;;14.48;13.35;;;20.70;56.40;;;;;;5017425;28;20032;-82
2022/07/15 02:36:16;;;;;;;14.48;13.20;;;20.80;56.10;;;;;;5051152;28;20040;-81
2022/07/15 02:38:42;;;;;;;14.23;13.13;;;20.80;56.10;;;;;;5024103;28;20342;-82
2022/07/15 02:41:11;;;;;;;14.25;13.15;;;20.80;55.90;;;;;;5020270;28;20037;-81
2022/07/15 02:43:37;;;;;;;13.73;12.73;;;20.70;56.20;;;;;;5039921;28;20037;-81
2022/07/15 02:46:04;;;;;;;13.95;12.95;;;20.70;55.90;;;;;;5040252;28;20037;-82
2022/07/15 02:48:30;;;;;;;13.68;12.50;;;20.40;56.50;;;;;;5034767;28;20033;-81
2022/07/15 02:50:56;;;;;;;14.48;13.05;;;20.30;57.00;;;;;;5041656;28;20056;-81
2022/07/15 02:53:28;;;;;;;14.25;12.90;;;20.20;57.10;;;;;;5036626;28;20036;-82
2022/07/15 02:55:58;;;;;;;13.35;12.35;;;20.20;57.00;;;;;;5036466;28;20048;-82
2022/07/15 02:58:25;;;;;;;13.38;12.30;;;20.20;57.20;;;;;;5020568;28;22097;-82
2022/07/15 03:00:51;;;;;;;13.75;12.75;;;20.00;57.50;;;;;;5019419;28;20400;-81
2022/07/15 03:03:17;;;;;;;12.95;12.05;;;19.90;57.70;;;;;;5019530;28;20029;-81
2022/07/15 03:05:44;;;;;;;13.27;12.00;;;19.90;57.80;;;;;;5040035;28;20476;-81
2022/07/15 03:08:10;;;;;;;13.13;12.00;;;19.80;58.00;;;;;;5038969;28;20025;-82
2022/07/15 03:10:36;;;;;;;13.82;12.45;;;19.80;58.00;;;;;;5022414;28;20495;-82
2022/07/15 03:13:02;;;;;;;13.50;12.35;;;19.80;57.70;;;;;;5022188;28;20448;-81
2022/07/15 03:15:28;;;;;;;13.43;12.07;;;19.90;57.50;;;;;;5017591;28;20049;-82
2022/07/15 03:17:55;;;;;;;13.20;11.80;;;19.80;57.80;;;;;;5039881;28;20037;-81
2022/07/15 03:20:22;;;;;;;13.60;12.60;;;20.00;57.30;;;;;;5036471;28;20447;-81
2022/07/15 03:22:48;;;;;;;12.55;11.63;;;19.90;57.30;;;;;;5038468;28;20033;-81
2022/07/15 03:25:14;;;;;;;13.30;12.43;;;20.00;57.50;;;;;;5036346;28;20025;-82
2022/07/15 03:27:40;;;;;;;13.82;12.43;;;19.90;57.10;;;;;;5035344;28;20032;-81
2022/07/15 03:30:07;;;;;;;13.85;12.60;;;19.70;57.60;;;;;;5038646;28;20025;-81
2022/07/15 03:32:33;;;;;;;14.18;12.85;;;19.80;57.40;;;;;;5035084;28;20041;-81
2022/07/15 03:34:59;;;;;;;13.75;12.68;;;19.90;57.30;;;;;;5021080;28;20041;-81
2022/07/15 03:37:25;;;;;;;12.70;11.80;;;19.70;57.70;;;;;;5044223;28;20042;-81
2022/07/15 03:39:51;;;;;;;12.38;11.55;;;19.50;58.30;;;;;;5035346;28;20037;-81
2022/07/15 03:42:17;;;;;;;13.52;12.40;;;19.50;58.10;;;;;;4999299;28;20048;-81
2022/07/15 03:44:44;;;;;;;14.32;12.20;;;19.50;58.10;;;;;;5019783;28;20439;-81
2022/07/15 03:47:10;;;;;;;12.63;11.63;;;19.40;58.30;;;;;;5034846;28;20037;-81
2022/07/15 03:49:36;;;;;;;12.65;11.57;;;19.40;58.40;;;;;;5035138;28;20400;-81
2022/07/15 03:52:02;;;;;;;12.20;11.23;;;19.40;58.10;;;;;;5018689;28;20045;-81
2022/07/15 03:54:28;;;;;;;12.38;11.43;;;19.50;58.10;;;;;;5031182;28;20026;-81
2022/07/15 03:56:55;;;;;;;11.60;10.60;;;19.40;58.10;;;;;;5036232;28;20048;-81
2022/07/15 03:59:21;;;;;;;12.15;11.05;;;19.40;58.20;;;;;;5015309;28;20045;-82
2022/07/15 04:01:48;;;;;;;12.32;11.05;;;19.40;57.90;;;;;;5036116;28;20037;-81
2022/07/15 04:04:14;;;;;;;11.77;10.65;;;19.30;58.50;;;;;;5016565;28;20047;-81
2022/07/15 04:06:41;;;;;;;13.25;11.00;;;19.40;58.00;;;;;;4999449;28;20045;-81
2022/07/15 04:09:07;;;;;;;11.75;10.80;;;19.30;58.00;;;;;;5017638;28;20408;-81
2022/07/15 04:11:33;;;;;;;11.45;10.65;;;19.40;58.10;;;;;;5015747;28;20042;-81
2022/07/15 04:13:59;;;;;;;12.15;10.95;;;19.40;57.70;;;;;;5030784;28;20467;-82
2022/07/15 04:16:26;;;;;;;11.98;11.00;;;19.30;58.20;;;;;;5031377;28;20045;-81
2022/07/15 04:18:52;;;;;;;11.90;10.90;;;19.20;58.30;;;;;;5016267;28;20393;-82
2022/07/15 04:21:18;;;;;;;11.90;10.82;;;19.10;58.50;;;;;;5032430;28;20037;-82
2022/07/15 04:23:44;;;;;;;12.65;11.35;;;18.90;59.00;;;;;;5019368;28;20522;-81
2022/07/15 04:26:10;;;;;;;13.57;12.38;;;18.80;59.30;;;;;;5016015;28;20030;-81
2022/07/15 04:28:36;;;;;;;13.50;12.30;;;18.80;59.30;;;;;;5035834;28;20403;-81
2022/07/15 04:31:02;;;;;;;13.25;11.68;;;18.90;59.10;;;;;;5031391;28;20033;-81
2022/07/15 04:33:28;;;;;;;12.52;11.45;;;18.90;59.20;;;;;;5030613;28;20033;-81
2022/07/15 04:35:54;;;;;;;12.95;11.85;;;19.00;58.90;;;;;;5047986;28;20494;-81
2022/07/15 04:38:20;;;;;;;14.48;11.40;;;19.00;58.70;;;;;;5019065;28;20033;-81
2022/07/15 04:40:47;;;;;;;11.98;10.98;;;18.90;59.10;;;;;;5018158;28;20037;-81
2022/07/15 04:43:13;;;;;;;11.68;10.70;;;18.80;59.30;;;;;;5014794;28;20036;-82
2022/07/15 04:45:39;;;;;;;14.52;11.10;;;18.80;59.40;;;;;;5030261;28;20034;-81
2022/07/15 04:50:52;;;;;;;11.23;10.30;;;18.80;59.30;;;;;;5024800;28;20053;-81
2022/07/15 04:53:19;;;;;;;11.60;10.57;;;18.70;59.50;;;;;;5031888;28;20037;-82
2022/07/15 04:55:46;;;;;;;10.85;10.05;;;18.70;59.70;;;;;;5001420;28;20044;-81
2022/07/15 04:58:14;;;;;;;10.77;9.98;;;18.60;59.90;;;;;;5015045;28;20040;-81
2022/07/15 05:00:42;;;;;;;15.70;10.75;;;18.50;60.30;;;;;;5030364;28;20396;-81
2022/07/15 05:03:08;;;;;;;11.07;10.18;;;18.50;60.10;;;;;;5015900;28;20041;-81
2022/07/15 05:05:34;;;;;;;11.82;10.73;;;18.60;60.10;;;;;;4998774;28;20037;-81
2022/07/15 05:08:00;;;;;;;11.50;10.52;;;18.50;60.00;;;;;;5029850;28;20463;-81
2022/07/15 05:10:26;;;;;;;10.73;9.85;;;18.50;60.20;;;;;;5035858;28;20045;-81
2022/07/15 05:12:52;;;;;;;11.10;10.25;;;18.50;60.40;;;;;;5032385;28;20030;-81
2022/07/15 05:15:18;;;;;;;12.32;11.32;;;18.50;60.10;;;;;;5030842;28;20383;-81
2022/07/15 05:17:45;;;;;;;12.65;11.65;;;18.60;60.20;;;;;;5034854;28;20053;-82
2022/07/15 05:20:11;;;;;;;12.75;11.95;;;18.60;60.00;;;;;;5014903;28;20502;-81
2022/07/15 05:22:37;;;;;;;12.55;11.27;;;18.80;59.20;;;;;;5017211;28;20037;-81
2022/07/15 05:25:04;;;;;;;11.52;10.73;;;18.80;59.40;;;;;;5034788;28;20037;-81
2022/07/15 05:27:30;;;;;;;12.55;10.93;;;18.90;59.30;;;;;;5013275;28;20044;-82
2022/07/15 05:29:56;;;;;;;12.60;11.45;;;18.80;59.40;;;;;;5001200;28;20459;-81
2022/07/15 05:32:22;;;;;;;14.57;11.77;;;19.00;59.30;;;;;;5032530;28;20044;-81
2022/07/15 05:34:48;;;;;;;12.73;11.32;;;19.20;58.70;;;;;;5034317;28;20084;-82
2022/07/15 05:37:14;;;;;;;11.88;10.93;;;19.40;58.20;;;;;;5040461;28;20056;-82
2022/07/15 05:39:53;;;;;;;12.32;11.32;;;19.50;57.80;;;;;;5028369;28;20032;-82
2022/07/15 05:42:22;;;;;;;11.88;10.88;;;19.60;57.50;;;;;;5031006;28;20048;-81
2022/07/15 05:44:48;;;;;;;11.73;10.80;;;19.60;57.70;;;;;;5034147;28;20376;-81
2022/07/15 05:47:15;;;;;;;12.63;11.48;;;19.60;57.70;;;;;;5030307;28;20041;-82
2022/07/15 05:49:41;;;;;;;12.73;11.52;;;19.80;57.20;;;;;;5014439;28;20021;-82
2022/07/15 05:52:08;;;;;;;12.38;11.38;;;20.00;56.60;;;;;;5014255;28;20037;-82
2022/07/15 05:54:34;;;;;;;13.85;11.70;;;19.90;56.90;;;;;;5027912;28;20026;-82
2022/07/15 05:57:00;;;;;;;13.18;12.00;;;19.90;57.10;;;;;;5034817;28;20041;-82
2022/07/15 05:59:26;;;;;;;12.10;11.23;;;20.10;56.70;;;;;;5014181;28;20475;-82
2022/07/15 06:01:52;;;;;;;12.00;11.10;;;20.20;56.40;;;;;;5030164;28;20473;-82
2022/07/15 06:04:18;;;;;;;13.13;11.93;;;20.30;56.30;;;;;;5030511;28;20021;-82
2022/07/15 06:06:44;;;;;;;13.23;12.10;;;20.40;56.10;;;;;;5011559;28;20034;-82
2022/07/15 06:09:10;;;;;;;13.15;12.15;;;20.60;55.70;;;;;;5031611;28;20060;-82
2022/07/15 06:11:37;;;;;;;13.10;11.93;;;20.60;55.50;;;;;;5033608;28;20037;-83
2022/07/15 06:14:03;;;;;;;14.13;12.77;;;20.60;55.50;;;;;;5030552;28;20022;-82
2022/07/15 06:16:29;;;;;;;12.60;11.65;;;20.60;55.50;;;;;;5033905;28;20042;-82
2022/07/15 06:18:55;;;;;;;13.50;12.40;;;20.50;55.90;;;;;;5029320;28;20383;-82
2022/07/15 06:21:21;;;;;;;12.52;11.73;;;20.60;55.80;;;;;;5029195;28;20044;-82
2022/07/15 06:23:47;;;;;;;13.73;12.82;;;20.80;55.40;;;;;;5001287;28;20042;-82
2022/07/15 06:26:14;;;;;;;13.48;12.38;;;20.90;55.20;;;;;;5016203;28;20030;-82
2022/07/15 06:28:40;;;;;;;13.60;12.30;;;21.00;55.90;;;;;;5034108;28;20395;-82
2022/07/15 06:31:06;;;;;;;13.30;12.38;;;21.10;55.00;;;;;;5015729;28;20033;-82
2022/07/15 06:33:32;;;;;;;13.35;12.35;;;21.00;55.20;;;;;;5011984;28;20056;-82
2022/07/15 06:35:58;;;;;;;14.13;13.13;;;21.10;55.00;;;;;;5046124;28;20033;-82
2022/07/15 06:38:25;;;;;;;13.88;12.73;;;21.10;54.90;;;;;;5033178;28;20033;-82
2022/07/15 06:40:51;;;;;;;14.93;13.52;;;21.10;54.90;;;;;;5013643;28;20040;-82
2022/07/15 06:43:17;;;;;;;14.50;13.35;;;21.20;55.00;;;;;;5033941;28;20036;-82
2022/07/15 06:45:43;;;;;;;14.05;12.95;;;21.40;54.40;;;;;;5010409;28;20026;-82
2022/07/15 06:48:09;;;;;;;14.18;13.10;;;21.40;54.30;;;;;;5014598;28;20045;-82
2022/07/15 06:50:35;;;;;;;14.52;13.43;;;21.40;54.30;;;;;;5032127;28;20045;-82
2022/07/15 06:53:02;;;;;;;16.00;14.35;;;21.40;54.20;;;;;;4996897;28;20045;-82
2022/07/15 06:55:28;;;;;;;14.45;13.45;;;21.40;54.30;;;;;;5033305;28;20051;-82
2022/07/15 06:57:54;;;;;;;14.73;13.52;;;21.50;54.40;;;;;;5043974;28;20041;-82
2022/07/15 07:00:20;;;;;;;16.27;14.48;;;21.60;54.30;;;;;;5012473;28;20029;-82
2022/07/15 07:02:46;;;;;;;15.57;14.38;;;21.60;54.20;;;;;;5016763;28;20041;-82
2022/07/15 07:05:12;;;;;;;14.52;13.52;;;21.80;53.90;;;;;;5029920;28;20026;-82
2022/07/15 07:07:38;;;;;;;16.20;14.73;;;22.00;53.60;;;;;;5035737;28;20392;-82
2022/07/15 07:10:05;;;;;;;16.13;14.95;;;22.30;52.70;;;;;;5033439;28;20052;-82
2022/07/15 07:12:31;;;;;;;16.10;15.07;;;22.50;52.30;;;;;;5016157;28;20025;-82
2022/07/15 07:14:57;;;;;;;17.50;15.85;;;22.70;51.70;;;;;;5037110;28;20029;-82
2022/07/15 07:17:23;;;;;;;16.42;15.15;;;22.50;52.00;;;;;;5018979;28;20049;-82
2022/07/15 07:19:49;;;;;;;15.82;14.82;;;22.40;52.20;;;;;;5016987;28;20048;-83
2022/07/15 07:22:15;;;;;;;17.23;15.73;;;22.20;52.60;;;;;;5016565;28;20207;-83
2022/07/15 07:24:41;;;;;;;14.90;14.00;;;22.20;52.70;;;;;;5016013;28;20025;-82
2022/07/15 07:27:07;;;;;;;15.50;14.35;;;22.20;52.60;;;;;;5035032;28;20036;-82
2022/07/15 07:29:34;;;;;;;15.80;14.70;;;22.30;52.30;;;;;;5020129;28;20037;-82
2022/07/15 07:32:00;;;;;;;15.43;14.13;;;22.30;52.20;;;;;;5036442;28;20895;-82
2022/07/15 07:34:26;;;;;;;16.17;14.88;;;22.30;52.10;;;;;;5037300;28;20044;-82
2022/07/15 07:36:52;;;;;;;18.10;16.92;;;22.50;52.50;;;;;;5047033;28;20484;-83
2022/07/15 07:39:18;;;;;;;16.77;15.68;;;22.80;51.00;;;;;;5034307;28;20029;-83
2022/07/15 07:41:44;;;;;;;17.80;16.25;;;23.10;50.60;;;;;;5019891;28;20056;-83
2022/07/15 07:44:10;;;;;;;17.65;16.65;;;23.20;50.50;;;;;;5036893;28;20037;-82
2022/07/15 07:46:36;;;;;;;18.65;17.52;;;23.30;49.50;;;;;;5032250;28;20048;-82
2022/07/15 07:49:02;;;;;;;19.20;17.60;;;23.30;49.20;;;;;;5016286;28;20391;-83
2022/07/15 07:51:29;;;;;;;19.27;17.95;;;23.40;49.20;;;;;;5014810;28;20026;-82
2022/07/15 07:53:56;;;;;;;20.50;19.20;;;23.60;48.50;;;;;;5036307;28;20040;-83
2022/07/15 07:56:22;;;;;;;19.92;18.80;;;23.90;48.00;;;;;;5032947;28;20030;-82
2022/07/15 07:58:48;;;;;;;19.35;17.92;;;24.00;47.30;;;;;;5002679;28;20443;-83
2022/07/15 08:01:14;;;;;;;19.55;18.25;;;24.00;47.10;;;;;;5036097;28;20040;-83
2022/07/15 08:03:40;;;;;;;20.67;19.27;;;24.10;47.60;;;;;;5033094;28;20034;-82
2022/07/15 08:06:07;;;;;;;21.30;19.80;;;24.20;46.60;;;;;;5034286;28;20053;-83
2022/07/15 08:08:33;;;;;;;21.52;20.25;;;24.30;46.20;;;;;;5035663;28;20049;-83
2022/07/15 08:10:59;;;;;;;21.20;19.77;;;24.40;46.40;;;;;;5016206;28;20037;-83
2022/07/15 08:13:26;;;;;;;22.67;21.13;;;24.60;45.80;;;;;;5036406;28;20025;-83
2022/07/15 08:15:53;;;;;;;23.45;21.80;;;24.70;45.80;;;;;;5030218;28;20042;-83
2022/07/15 08:18:20;;;;;;;22.63;21.27;;;24.90;45.30;;;;;;5031511;28;20476;-83
2022/07/15 08:20:46;;;;;;;24.38;22.60;;;25.00;45.30;;;;;;5035726;28;20025;-83
2022/07/15 08:23:12;;;;;;;23.77;22.30;;;24.90;45.40;;;;;;5032250;28;20045;-83
2022/07/15 08:25:38;;;;;;;25.35;24.00;;;24.90;45.10;;;;;;5016051;28;20025;-83
2022/07/15 08:28:05;;;;;;;23.65;22.35;;;25.20;44.70;;;;;;5015910;28;20029;-83
2022/07/15 08:30:33;;;;;;;31.30;29.42;;;25.20;44.50;;;;;;5014304;28;20041;-82
2022/07/15 08:32:59;;;;;;;23.92;22.42;;;25.40;43.60;;;;;;5014247;28;20037;-82
2022/07/15 08:35:25;;;;;;;36.80;34.72;;;25.30;43.90;;;;;;5042894;28;20040;-83
2022/07/15 08:37:51;;;;;;;28.30;26.27;;;25.30;43.70;;;;;;5039599;28;20060;-83
2022/07/15 08:40:18;;;;;;;26.23;24.52;;;25.40;43.60;;;;;;5035744;28;20032;-82
2022/07/15 08:42:46;;;;;;;33.83;32.08;;;25.50;43.50;;;;;;5029238;28;20045;-83
2022/07/15 08:45:12;;;;;;;25.88;24.35;;;25.30;43.10;;;;;;5015546;28;20030;-83
2022/07/15 08:47:41;;;;;;;30.58;29.02;;;25.30;42.90;;;;;;5018744;28;20029;-82
2022/07/15 08:50:11;;;;;;;28.10;26.60;;;25.30;42.60;;;;;;5015516;28;20045;-83
2022/07/15 08:52:37;;;;;;;26.70;24.90;;;25.20;43.00;;;;;;5001970;28;20406;-83
2022/07/15 08:55:04;;;;;;;25.17;23.95;;;25.30;43.00;;;;;;5015281;28;20491;-83
2022/07/15 08:57:30;;;;;;;25.55;24.05;;;25.50;42.10;;;;;;5013615;28;20045;-83
2022/07/15 08:59:56;;;;;;;26.23;24.83;;;25.40;42.70;;;;;;5035182;28;20399;-83
2022/07/15 09:02:22;;;;;;;26.55;24.98;;;25.60;42.50;;;;;;5030865;28;20041;-83
2022/07/15 09:05:21;;;;;;;29.67;28.02;;;25.70;42.00;;;;;;5028237;28;20033;-83
2022/07/15 09:07:52;;;;;;;28.23;26.67;;;25.90;41.40;;;;;;5028592;28;20048;-83
2022/07/15 09:10:18;;;;;;;27.55;26.05;;;26.10;41.10;;;;;;5034634;28;20059;-83
2022/07/15 09:12:44;;;;;;;39.10;36.83;;;26.10;41.00;;;;;;5032299;28;20025;-84
2022/07/15 09:15:28;;;;;;;27.13;25.73;;;26.30;40.80;;;;;;4996630;28;20125;-84
2022/07/15 09:18:04;;;;;;;28.92;27.25;;;26.50;40.20;;;;;;5001541;28;20411;-84
2022/07/15 09:20:30;;;;;;;28.95;27.30;;;26.50;39.90;;;;;;5033004;28;20025;-84
2022/07/15 09:22:56;;;;;;;29.25;27.50;;;26.50;40.00;;;;;;5017233;28;20048;-84
2022/07/15 09:25:22;;;;;;;28.00;26.00;;;26.50;40.10;;;;;;5031143;28;20021;-84
2022/07/15 09:27:48;;;;;;;29.33;27.63;;;26.50;40.30;;;;;;5029046;28;20032;-83
2022/07/15 09:36:11;;;;;;;29.00;27.50;;;26.70;40.50;;;;;;5048727;28;20028;-84
2022/07/15 09:38:51;;;;;;;35.70;33.17;;;26.90;40.00;;;;;;5034780;28;20052;-83
2022/07/15 09:41:25;;;;;;;29.90;28.13;;;27.00;40.20;;;;;;5015881;28;20041;-84
2022/07/15 09:43:53;;;;;;;32.40;30.20;;;27.10;39.80;;;;;;5034618;28;20468;-84
2022/07/15 09:46:20;;;;;;;45.28;42.72;;;27.40;39.80;;;;;;5034139;28;20033;-83
2022/07/15 09:48:47;;;;;;;30.02;28.23;;;27.40;39.80;;;;;;5011833;28;20026;-84
2022/07/15 09:51:14;;;;;;;50.78;47.83;;;27.50;39.20;;;;;;5015108;28;20018;-84
2022/07/15 09:53:40;;;;;;;31.63;29.52;;;27.50;39.60;;;;;;5030812;28;20032;-84
2022/07/15 09:56:09;;;;;;;30.30;28.65;;;27.60;39.20;;;;;;5036248;28;20383;-84
2022/07/15 09:58:37;;;;;;;42.83;40.08;;;27.70;39.40;;;;;;5014595;28;20085;-84
2022/07/15 10:01:03;;;;;;;31.08;29.25;;;27.80;38.80;;;;;;5033727;28;20040;-83
2022/07/15 10:03:31;;;;;;;36.25;34.20;;;27.90;38.70;;;;;;5028740;28;20044;-84
2022/07/15 10:05:59;;;;;;;34.05;32.22;;;28.00;38.60;;;;;;5014172;28;20480;-84
2022/07/15 10:08:25;;;;;;;30.98;29.23;;;28.20;37.90;;;;;;5013000;28;20046;-83
2022/07/15 10:10:51;;;;;;;36.47;34.40;;;28.00;38.30;;;;;;5016763;28;20040;-84
2022/07/15 10:13:44;;;;;;;79.25;73.95;;;27.80;38.60;;;;;;5014118;28;20055;-83
2022/07/15 10:16:22;;;;;;;44.40;42.20;;;27.70;38.70;;;;;;5015521;28;20056;-84
2022/07/15 10:18:54;;;;;;;31.63;29.80;;;27.90;38.40;;;;;;5027360;28;20107;-83
2022/07/15 10:21:36;;;;;;;30.25;28.30;;;27.90;38.80;;;;;;5029334;28;20112;-84
2022/07/15 10:24:11;;;;;;;31.20;29.30;;;28.00;38.60;;;;;;5041654;28;20033;-84
2022/07/15 10:26:40;;;;;;;32.50;30.70;;;28.20;38.30;;;;;;5033113;28;20518;-84
2022/07/15 10:29:06;;;;;;;31.75;29.95;;;28.20;38.30;;;;;;5030372;28;20049;-84
2022/07/15 10:31:33;;;;;;;31.58;29.77;;;28.40;37.80;;;;;;5015623;28;20040;-84
2022/07/15 10:34:02;;;;;;;62.13;58.38;;;28.30;37.90;;;;;;5027722;28;20036;-84
2022/07/15 10:36:41;;;;;;;31.27;29.58;;;28.30;37.70;;;;;;5045706;28;20492;-84
2022/07/15 10:39:08;;;;;;;31.75;29.77;;;28.20;38.10;;;;;;5041845;28;20413;-84
2022/07/15 10:41:54;;;;;;;36.42;34.30;;;28.40;37.40;;;;;;5000106;28;20042;-84
2022/07/15 10:44:20;;;;;;;38.85;36.67;;;28.60;37.00;;;;;;5035876;28;20022;-84
2022/07/15 10:46:47;;;;;;;34.63;32.63;;;28.50;37.10;;;;;;5019530;28;20033;-84
2022/07/15 10:49:16;;;;;;;34.10;32.30;;;28.40;37.80;;;;;;5017728;28;20013;-84
2022/07/15 10:51:43;;;;;;;54.92;51.78;;;28.80;36.70;;;;;;5034835;28;20040;-84
2022/07/15 10:54:16;;;;;;;43.33;41.05;;;29.00;36.30;;;;;;5018890;28;20022;-84
2022/07/15 10:56:44;;;;;;;35.85;33.85;;;28.80;36.10;;;;;;5035379;28;20033;-84
2022/07/15 10:59:14;;;;;;;168.63;158.55;;;28.70;36.50;;;;;;5035771;28;20048;-84
2022/07/15 11:01:43;;;;;;;41.58;39.45;;;28.90;35.20;;;;;;5018695;28;20492;-84
2022/07/15 11:04:13;;;;;;;34.25;32.13;;;28.70;34.90;;;;;;5033715;28;20040;-84
2022/07/15 11:07:12;;;;;;;34.20;32.17;;;28.50;35.70;;;;;;5015914;28;20037;-84
2022/07/15 11:09:51;;;;;;;33.65;31.55;;;28.80;34.10;;;;;;5009819;28;20408;-83
2022/07/15 11:12:27;;;;;;;34.55;32.55;;;28.70;34.60;;;;;;5033952;28;20037;-83
2022/07/15 11:15:04;;;;;;;46.00;43.58;;;28.80;35.10;;;;;;5037212;28;20511;-84
2022/07/15 11:17:30;;;;;;;39.53;37.42;;;29.10;34.50;;;;;;5033598;28;20041;-84
2022/07/15 11:20:11;;;;;;;38.22;36.15;;;29.20;34.00;;;;;;5032772;28;20054;-84
2022/07/15 11:22:48;;;;;;;42.97;40.60;;;29.40;33.80;;;;;;5003603;28;20037;-84
2022/07/15 11:25:21;;;;;;;40.22;38.10;;;29.60;32.20;;;;;;5037388;28;20372;-84
2022/07/15 11:28:00;;;;;;;38.30;36.17;;;29.40;31.60;;;;;;5015910;28;20038;-84
2022/07/15 11:30:49;;;;;;;37.95;35.78;;;29.40;32.60;;;;;;5032734;28;20396;-84
2022/07/15 11:33:16;;;;;;;43.35;40.88;;;29.50;32.70;;;;;;5046918;28;20384;-84
2022/07/15 11:35:45;;;;;;;38.72;36.63;;;29.60;31.20;;;;;;5046523;28;20021;-84
2022/07/15 11:38:11;;;;;;;41.13;39.00;;;29.40;31.20;;;;;;5037743;28;20045;-84
2022/07/15 11:46:10;;;;;;;36.40;34.50;;;29.40;30.30;;;;;;5036270;28;20586;-84
2022/07/15 11:48:37;;;;;;;36.30;34.40;;;29.30;31.50;;;;;;5031367;28;20047;-84
2022/07/15 11:51:03;;;;;;;37.72;35.70;;;29.30;31.20;;;;;;5035401;28;20037;-84
2022/07/15 11:53:37;;;;;;;38.47;36.58;;;29.50;31.90;;;;;;5035856;28;20037;-84
2022/07/15 11:56:04;;;;;;;41.90;39.65;;;29.80;30.30;;;;;;5033106;28;20036;-84
2022/07/15 11:58:38;;;;;;;57.05;53.80;;;29.90;30.30;;;;;;5036195;28;20472;-84
2022/07/15 12:01:07;;;;;;;42.42;40.13;;;29.80;29.90;;;;;;5016249;28;20033;-84
2022/07/15 12:03:37;;;;;;;1021.20;520.05;;;30.00;30.00;;;;;;5015456;28;20388;-84
2022/07/15 12:06:11;;;;;;;39.53;37.55;;;30.20;29.70;;;;;;5015487;28;20033;-84
2022/07/15 12:08:43;;;;;;;40.90;38.88;;;30.10;29.60;;;;;;5034642;28;20053;-84
2022/07/15 12:11:14;;;;;;;1510.78;760.20;;;30.00;29.00;;;;;;5036497;28;20392;-84
2022/07/15 12:13:46;;;;;;;1999.90;999.90;;;29.90;29.00;;;;;;5016421;28;20033;-84
2022/07/15 12:16:12;;;;;;;1999.90;999.90;;;30.00;28.80;;;;;;5032224;28;20040;-84
2022/07/15 12:18:39;;;;;;;1999.90;999.90;;;30.10;29.40;;;;;;5030832;28;20036;-84
2022/07/15 12:21:05;;;;;;;1999.90;999.90;;;30.30;28.70;;;;;;5033251;28;20068;-83
2022/07/15 12:23:31;;;;;;;1999.90;999.90;;;30.50;28.00;;;;;;5018932;28;20025;-84
2022/07/15 12:26:04;;;;;;;1999.90;999.90;;;30.60;28.10;;;;;;5036133;28;20061;-84
2022/07/15 12:28:31;;;;;;;1999.90;999.90;;;30.60;27.40;;;;;;5015954;28;20028;-84
2022/07/15 12:30:57;;;;;;;1999.90;999.90;;;30.50;27.70;;;;;;5030849;28;20075;-83
2022/07/15 12:33:23;;;;;;;1999.90;999.90;;;30.60;27.80;;;;;;5014976;28;20029;-84
2022/07/15 12:35:49;;;;;;;1999.90;999.90;;;30.60;28.20;;;;;;5047232;28;20025;-84
2022/07/15 12:38:30;;;;;;;1999.90;999.90;;;30.70;28.00;;;;;;5019738;28;20044;-84
2022/07/15 12:41:06;;;;;;;1999.90;999.90;;;30.80;27.70;;;;;;5035641;28;20388;-84
2022/07/15 12:43:56;;;;;;;1999.90;999.90;;;30.70;27.70;;;;;;5002017;28;20042;-85
2022/07/15 12:46:48;;;;;;;1999.90;999.90;;;30.80;27.60;;;;;;5031440;28;20043;-84